sensor_id;sensor_type;location;lat;lon;timestamp;P1;durP1;ratioP1;P2;durP2;ratioP2
61709;SDS011;47633;51.494;5.386;2023-05-29T00:01:08;7.73;;;3.87;;
61709;SDS011;47633;51.494;5.386;2023-05-29T00:03:34;6.57;;;3.70;;
61709;SDS011;47633;51.494;5.386;2023-05-29T00:06:01;5.80;;;3.28;;
61709;SDS011;47633;51.494;5.386;2023-05-29T00:08:27;8.55;;;4.15;;
61709;SDS011;47633;51.494;5.386;2023-05-29T00:10:53;7.38;;;3.80;;
61709;SDS011;47633;51.494;5.386;2023-05-29T00:13:18;6.50;;;3.90;;
61709;SDS011;47633;51.494;5.386;2023-05-29T00:15:43;6.50;;;3.47;;
61709;SDS011;47633;51.494;5.386;2023-05-29T00:18:09;6.87;;;4.13;;
61709;SDS011;47633;51.494;5.386;2023-05-29T00:20:34;7.78;;;3.65;;
61709;SDS011;47633;51.494;5.386;2023-05-29T00:22:59;6.07;;;3.20;;
61709;SDS011;47633;51.494;5.386;2023-05-29T00:25:27;6.13;;;3.47;;
61709;SDS011;47633;51.494;5.386;2023-05-29T00:27:52;6.80;;;3.90;;
61709;SDS011;47633;51.494;5.386;2023-05-29T00:30:17;8.65;;;3.42;;
61709;SDS011;47633;51.494;5.386;2023-05-29T00:32:42;6.70;;;3.70;;
61709;SDS011;47633;51.494;5.386;2023-05-29T00:35:08;6.82;;;3.10;;
61709;SDS011;47633;51.494;5.386;2023-05-29T00:37:33;6.55;;;3.78;;
61709;SDS011;47633;51.494;5.386;2023-05-29T00:39:59;5.03;;;3.20;;
61709;SDS011;47633;51.494;5.386;2023-05-29T00:42:25;8.13;;;3.53;;
61709;SDS011;47633;51.494;5.386;2023-05-29T00:44:50;8.75;;;3.65;;
61709;SDS011;47633;51.494;5.386;2023-05-29T00:47:15;6.72;;;3.30;;
61709;SDS011;47633;51.494;5.386;2023-05-29T00:49:41;6.28;;;3.53;;
61709;SDS011;47633;51.494;5.386;2023-05-29T00:52:06;6.30;;;3.58;;
61709;SDS011;47633;51.494;5.386;2023-05-29T00:54:35;6.45;;;3.25;;
61709;SDS011;47633;51.494;5.386;2023-05-29T00:57:01;7.93;;;3.80;;
61709;SDS011;47633;51.494;5.386;2023-05-29T00:59:31;5.93;;;3.00;;
61709;SDS011;47633;51.494;5.386;2023-05-29T01:01:58;6.88;;;3.45;;
61709;SDS011;47633;51.494;5.386;2023-05-29T01:04:25;6.20;;;3.42;;
61709;SDS011;47633;51.494;5.386;2023-05-29T01:06:51;7.22;;;3.30;;
61709;SDS011;47633;51.494;5.386;2023-05-29T01:09:17;7.00;;;3.50;;
61709;SDS011;47633;51.494;5.386;2023-05-29T01:11:50;8.60;;;3.40;;
61709;SDS011;47633;51.494;5.386;2023-05-29T01:29:26;6.82;;;3.40;;
61709;SDS011;47633;51.494;5.386;2023-05-29T01:31:54;8.00;;;2.80;;
61709;SDS011;47633;51.494;5.386;2023-05-29T01:34:20;6.95;;;2.72;;
61709;SDS011;47633;51.494;5.386;2023-05-29T01:36:46;6.10;;;2.92;;
61709;SDS011;47633;51.494;5.386;2023-05-29T01:39:11;7.90;;;2.90;;
61709;SDS011;47633;51.494;5.386;2023-05-29T01:41:38;6.88;;;3.10;;
61709;SDS011;47633;51.494;5.386;2023-05-29T01:44:05;7.30;;;3.15;;
61709;SDS011;47633;51.494;5.386;2023-05-29T01:46:33;6.18;;;2.83;;
61709;SDS011;47633;51.494;5.386;2023-05-29T01:49:00;8.27;;;3.05;;
61709;SDS011;47633;51.494;5.386;2023-05-29T01:51:26;6.65;;;2.53;;
61709;SDS011;47633;51.494;5.386;2023-05-29T01:53:51;7.25;;;2.75;;
61709;SDS011;47633;51.494;5.386;2023-05-29T01:56:17;9.48;;;2.67;;
61709;SDS011;47633;51.494;5.386;2023-05-29T01:58:43;7.25;;;2.60;;
61709;SDS011;47633;51.494;5.386;2023-05-29T02:01:09;5.85;;;2.67;;
61709;SDS011;47633;51.494;5.386;2023-05-29T02:03:35;6.28;;;2.88;;
61709;SDS011;47633;51.494;5.386;2023-05-29T02:06:00;6.57;;;2.75;;
61709;SDS011;47633;51.494;5.386;2023-05-29T02:08:26;7.32;;;3.08;;
61709;SDS011;47633;51.494;5.386;2023-05-29T02:10:52;6.35;;;2.75;;
61709;SDS011;47633;51.494;5.386;2023-05-29T02:13:17;6.55;;;2.58;;
61709;SDS011;47633;51.494;5.386;2023-05-29T02:15:43;6.65;;;2.55;;
61709;SDS011;47633;51.494;5.386;2023-05-29T02:18:13;7.43;;;3.10;;
61709;SDS011;47633;51.494;5.386;2023-05-29T02:20:40;7.50;;;3.00;;
61709;SDS011;47633;51.494;5.386;2023-05-29T02:23:09;7.45;;;2.90;;
61709;SDS011;47633;51.494;5.386;2023-05-29T02:25:35;6.95;;;2.80;;
61709;SDS011;47633;51.494;5.386;2023-05-29T02:28:01;7.45;;;2.90;;
61709;SDS011;47633;51.494;5.386;2023-05-29T02:30:27;7.57;;;2.55;;
61709;SDS011;47633;51.494;5.386;2023-05-29T02:32:53;6.95;;;2.70;;
61709;SDS011;47633;51.494;5.386;2023-05-29T02:35:18;7.07;;;2.95;;
61709;SDS011;47633;51.494;5.386;2023-05-29T02:37:47;7.10;;;2.60;;
61709;SDS011;47633;51.494;5.386;2023-05-29T02:40:12;7.13;;;2.60;;
61709;SDS011;47633;51.494;5.386;2023-05-29T02:42:38;7.72;;;2.65;;
61709;SDS011;47633;51.494;5.386;2023-05-29T02:45:03;7.28;;;2.55;;
61709;SDS011;47633;51.494;5.386;2023-05-29T02:47:29;7.63;;;2.63;;
61709;SDS011;47633;51.494;5.386;2023-05-29T02:49:54;5.85;;;2.35;;
61709;SDS011;47633;51.494;5.386;2023-05-29T02:52:20;7.35;;;2.47;;
61709;SDS011;47633;51.494;5.386;2023-05-29T02:54:45;7.03;;;2.65;;
61709;SDS011;47633;51.494;5.386;2023-05-29T02:57:10;6.72;;;2.30;;
61709;SDS011;47633;51.494;5.386;2023-05-29T02:59:36;8.05;;;2.38;;
61709;SDS011;47633;51.494;5.386;2023-05-29T03:02:02;6.20;;;2.35;;
61709;SDS011;47633;51.494;5.386;2023-05-29T03:04:27;7.03;;;2.80;;
61709;SDS011;47633;51.494;5.386;2023-05-29T03:06:52;6.80;;;2.40;;
61709;SDS011;47633;51.494;5.386;2023-05-29T03:09:19;7.22;;;2.35;;
61709;SDS011;47633;51.494;5.386;2023-05-29T03:11:44;8.55;;;2.67;;
61709;SDS011;47633;51.494;5.386;2023-05-29T03:14:10;5.80;;;2.28;;
61709;SDS011;47633;51.494;5.386;2023-05-29T03:16:35;7.45;;;2.50;;
61709;SDS011;47633;51.494;5.386;2023-05-29T03:19:01;6.82;;;2.47;;
61709;SDS011;47633;51.494;5.386;2023-05-29T03:21:26;5.43;;;1.83;;
61709;SDS011;47633;51.494;5.386;2023-05-29T03:23:51;6.53;;;2.45;;
61709;SDS011;47633;51.494;5.386;2023-05-29T03:26:17;6.13;;;2.28;;
61709;SDS011;47633;51.494;5.386;2023-05-29T03:28:42;7.13;;;2.40;;
61709;SDS011;47633;51.494;5.386;2023-05-29T03:31:07;7.30;;;2.38;;
61709;SDS011;47633;51.494;5.386;2023-05-29T03:33:33;8.82;;;2.40;;
61709;SDS011;47633;51.494;5.386;2023-05-29T03:35:59;8.85;;;2.75;;
61709;SDS011;47633;51.494;5.386;2023-05-29T03:38:25;8.50;;;2.33;;
61709;SDS011;47633;51.494;5.386;2023-05-29T03:40:50;7.67;;;2.60;;
61709;SDS011;47633;51.494;5.386;2023-05-29T03:43:15;6.20;;;2.00;;
61709;SDS011;47633;51.494;5.386;2023-05-29T03:45:41;6.23;;;2.23;;
61709;SDS011;47633;51.494;5.386;2023-05-29T03:48:06;7.65;;;2.20;;
61709;SDS011;47633;51.494;5.386;2023-05-29T03:50:31;6.30;;;2.40;;
61709;SDS011;47633;51.494;5.386;2023-05-29T03:52:56;6.38;;;2.28;;
61709;SDS011;47633;51.494;5.386;2023-05-29T03:55:22;8.73;;;2.70;;
61709;SDS011;47633;51.494;5.386;2023-05-29T03:57:47;7.00;;;2.05;;
61709;SDS011;47633;51.494;5.386;2023-05-29T04:00:13;6.57;;;2.40;;
61709;SDS011;47633;51.494;5.386;2023-05-29T04:02:38;6.85;;;2.17;;
61709;SDS011;47633;51.494;5.386;2023-05-29T04:05:04;7.70;;;2.20;;
61709;SDS011;47633;51.494;5.386;2023-05-29T04:07:31;5.30;;;2.10;;
61709;SDS011;47633;51.494;5.386;2023-05-29T04:09:57;7.88;;;2.45;;
61709;SDS011;47633;51.494;5.386;2023-05-29T04:12:22;8.40;;;2.13;;
61709;SDS011;47633;51.494;5.386;2023-05-29T04:14:48;8.43;;;2.30;;
61709;SDS011;47633;51.494;5.386;2023-05-29T04:17:13;7.73;;;1.97;;
61709;SDS011;47633;51.494;5.386;2023-05-29T04:19:38;5.53;;;1.97;;
61709;SDS011;47633;51.494;5.386;2023-05-29T04:22:03;7.82;;;2.40;;
61709;SDS011;47633;51.494;5.386;2023-05-29T04:24:29;5.80;;;2.05;;
61709;SDS011;47633;51.494;5.386;2023-05-29T04:26:56;8.32;;;2.63;;
61709;SDS011;47633;51.494;5.386;2023-05-29T04:29:22;10.65;;;2.85;;
61709;SDS011;47633;51.494;5.386;2023-05-29T04:31:47;6.65;;;2.17;;
61709;SDS011;47633;51.494;5.386;2023-05-29T04:34:13;6.97;;;2.17;;
61709;SDS011;47633;51.494;5.386;2023-05-29T04:36:41;8.57;;;2.72;;
61709;SDS011;47633;51.494;5.386;2023-05-29T04:39:08;6.88;;;2.45;;
61709;SDS011;47633;51.494;5.386;2023-05-29T04:41:34;5.97;;;2.10;;
61709;SDS011;47633;51.494;5.386;2023-05-29T04:44:00;8.32;;;1.98;;
61709;SDS011;47633;51.494;5.386;2023-05-29T04:46:26;5.75;;;2.15;;
61709;SDS011;47633;51.494;5.386;2023-05-29T04:48:51;8.18;;;2.28;;
61709;SDS011;47633;51.494;5.386;2023-05-29T04:51:20;8.18;;;2.40;;
61709;SDS011;47633;51.494;5.386;2023-05-29T04:53:46;9.95;;;2.88;;
61709;SDS011;47633;51.494;5.386;2023-05-29T04:56:12;6.45;;;1.95;;
61709;SDS011;47633;51.494;5.386;2023-05-29T04:58:38;6.65;;;2.20;;
61709;SDS011;47633;51.494;5.386;2023-05-29T05:01:04;7.80;;;2.42;;
61709;SDS011;47633;51.494;5.386;2023-05-29T05:03:29;6.22;;;2.10;;
61709;SDS011;47633;51.494;5.386;2023-05-29T05:05:59;8.32;;;2.40;;
61709;SDS011;47633;51.494;5.386;2023-05-29T05:08:27;5.28;;;1.83;;
61709;SDS011;47633;51.494;5.386;2023-05-29T05:10:52;6.55;;;2.08;;
61709;SDS011;47633;51.494;5.386;2023-05-29T05:13:18;6.00;;;2.40;;
61709;SDS011;47633;51.494;5.386;2023-05-29T05:15:43;6.25;;;2.00;;
61709;SDS011;47633;51.494;5.386;2023-05-29T05:18:08;6.13;;;2.20;;
61709;SDS011;47633;51.494;5.386;2023-05-29T05:20:33;6.43;;;1.80;;
61709;SDS011;47633;51.494;5.386;2023-05-29T05:22:59;7.80;;;2.33;;
61709;SDS011;47633;51.494;5.386;2023-05-29T05:25:25;7.65;;;2.08;;
61709;SDS011;47633;51.494;5.386;2023-05-29T05:27:50;7.22;;;1.92;;
61709;SDS011;47633;51.494;5.386;2023-05-29T05:30:15;6.82;;;2.00;;
61709;SDS011;47633;51.494;5.386;2023-05-29T05:32:41;5.10;;;1.55;;
61709;SDS011;47633;51.494;5.386;2023-05-29T05:35:06;5.83;;;1.63;;
61709;SDS011;47633;51.494;5.386;2023-05-29T05:37:32;6.53;;;2.03;;
61709;SDS011;47633;51.494;5.386;2023-05-29T05:39:58;5.60;;;1.70;;
61709;SDS011;47633;51.494;5.386;2023-05-29T05:42:25;7.88;;;2.13;;
61709;SDS011;47633;51.494;5.386;2023-05-29T05:44:50;6.18;;;2.05;;
61709;SDS011;47633;51.494;5.386;2023-05-29T05:47:15;6.63;;;2.13;;
61709;SDS011;47633;51.494;5.386;2023-05-29T05:49:41;5.22;;;1.60;;
61709;SDS011;47633;51.494;5.386;2023-05-29T05:52:06;7.00;;;2.75;;
61709;SDS011;47633;51.494;5.386;2023-05-29T05:54:31;7.15;;;2.08;;
61709;SDS011;47633;51.494;5.386;2023-05-29T05:56:57;6.22;;;1.60;;
61709;SDS011;47633;51.494;5.386;2023-05-29T05:59:22;7.68;;;1.83;;
61709;SDS011;47633;51.494;5.386;2023-05-29T06:01:47;6.35;;;2.05;;
61709;SDS011;47633;51.494;5.386;2023-05-29T06:04:13;5.17;;;1.70;;
61709;SDS011;47633;51.494;5.386;2023-05-29T06:06:38;5.60;;;1.65;;
61709;SDS011;47633;51.494;5.386;2023-05-29T06:09:04;6.53;;;2.10;;
61709;SDS011;47633;51.494;5.386;2023-05-29T06:11:30;5.77;;;1.67;;
61709;SDS011;47633;51.494;5.386;2023-05-29T06:13:56;7.45;;;1.85;;
61709;SDS011;47633;51.494;5.386;2023-05-29T06:16:21;7.07;;;2.07;;
61709;SDS011;47633;51.494;5.386;2023-05-29T06:18:47;6.30;;;2.00;;
61709;SDS011;47633;51.494;5.386;2023-05-29T06:21:12;7.37;;;2.10;;
61709;SDS011;47633;51.494;5.386;2023-05-29T06:23:38;7.82;;;2.00;;
61709;SDS011;47633;51.494;5.386;2023-05-29T06:26:03;6.25;;;2.10;;
61709;SDS011;47633;51.494;5.386;2023-05-29T06:28:29;6.32;;;2.00;;
61709;SDS011;47633;51.494;5.386;2023-05-29T06:30:55;6.05;;;1.83;;
61709;SDS011;47633;51.494;5.386;2023-05-29T06:33:20;9.75;;;2.13;;
61709;SDS011;47633;51.494;5.386;2023-05-29T06:35:46;6.55;;;2.35;;
61709;SDS011;47633;51.494;5.386;2023-05-29T06:38:12;5.57;;;1.90;;
61709;SDS011;47633;51.494;5.386;2023-05-29T06:40:38;6.90;;;2.28;;
61709;SDS011;47633;51.494;5.386;2023-05-29T06:43:03;7.95;;;1.92;;
61709;SDS011;47633;51.494;5.386;2023-05-29T06:45:28;8.07;;;2.17;;
61709;SDS011;47633;51.494;5.386;2023-05-29T06:47:54;5.78;;;1.83;;
61709;SDS011;47633;51.494;5.386;2023-05-29T06:50:20;5.82;;;1.70;;
61709;SDS011;47633;51.494;5.386;2023-05-29T06:52:45;7.85;;;2.30;;
61709;SDS011;47633;51.494;5.386;2023-05-29T06:55:11;8.23;;;2.10;;
61709;SDS011;47633;51.494;5.386;2023-05-29T06:57:36;7.63;;;1.67;;
61709;SDS011;47633;51.494;5.386;2023-05-29T07:00:02;6.75;;;1.83;;
61709;SDS011;47633;51.494;5.386;2023-05-29T07:02:30;6.38;;;1.80;;
61709;SDS011;47633;51.494;5.386;2023-05-29T07:04:56;4.75;;;1.73;;
61709;SDS011;47633;51.494;5.386;2023-05-29T07:07:21;8.80;;;2.00;;
61709;SDS011;47633;51.494;5.386;2023-05-29T07:09:46;6.97;;;1.93;;
61709;SDS011;47633;51.494;5.386;2023-05-29T07:12:11;8.10;;;2.00;;
61709;SDS011;47633;51.494;5.386;2023-05-29T07:14:37;8.75;;;2.00;;
61709;SDS011;47633;51.494;5.386;2023-05-29T07:17:02;6.73;;;1.77;;
61709;SDS011;47633;51.494;5.386;2023-05-29T07:19:27;6.15;;;1.95;;
61709;SDS011;47633;51.494;5.386;2023-05-29T07:21:54;5.93;;;1.83;;
61709;SDS011;47633;51.494;5.386;2023-05-29T07:24:19;4.95;;;1.48;;
61709;SDS011;47633;51.494;5.386;2023-05-29T07:26:45;5.93;;;1.90;;
61709;SDS011;47633;51.494;5.386;2023-05-29T07:29:10;7.20;;;1.83;;
61709;SDS011;47633;51.494;5.386;2023-05-29T07:31:37;6.78;;;1.60;;
61709;SDS011;47633;51.494;5.386;2023-05-29T07:34:05;9.90;;;2.22;;
61709;SDS011;47633;51.494;5.386;2023-05-29T07:36:30;13.30;;;2.20;;
61709;SDS011;47633;51.494;5.386;2023-05-29T07:38:56;7.22;;;1.92;;
61709;SDS011;47633;51.494;5.386;2023-05-29T07:41:23;6.57;;;1.90;;
61709;SDS011;47633;51.494;5.386;2023-05-29T07:43:48;8.00;;;1.90;;
61709;SDS011;47633;51.494;5.386;2023-05-29T07:46:16;6.03;;;1.88;;
61709;SDS011;47633;51.494;5.386;2023-05-29T07:48:42;8.23;;;2.28;;
61709;SDS011;47633;51.494;5.386;2023-05-29T07:51:07;7.30;;;2.00;;
61709;SDS011;47633;51.494;5.386;2023-05-29T07:53:35;4.75;;;1.88;;
61709;SDS011;47633;51.494;5.386;2023-05-29T07:56:00;6.57;;;1.80;;
61709;SDS011;47633;51.494;5.386;2023-05-29T07:58:26;6.80;;;1.70;;
61709;SDS011;47633;51.494;5.386;2023-05-29T08:00:52;8.90;;;1.73;;
61709;SDS011;47633;51.494;5.386;2023-05-29T08:03:17;9.00;;;2.42;;
61709;SDS011;47633;51.494;5.386;2023-05-29T08:05:42;7.32;;;1.98;;
61709;SDS011;47633;51.494;5.386;2023-05-29T08:08:08;7.43;;;1.88;;
61709;SDS011;47633;51.494;5.386;2023-05-29T08:10:33;6.30;;;1.80;;
61709;SDS011;47633;51.494;5.386;2023-05-29T08:12:58;9.05;;;1.88;;
61709;SDS011;47633;51.494;5.386;2023-05-29T08:15:23;7.43;;;2.15;;
61709;SDS011;47633;51.494;5.386;2023-05-29T08:17:51;6.72;;;1.70;;
61709;SDS011;47633;51.494;5.386;2023-05-29T08:20:16;7.57;;;1.70;;
61709;SDS011;47633;51.494;5.386;2023-05-29T08:22:42;5.80;;;1.75;;
61709;SDS011;47633;51.494;5.386;2023-05-29T08:25:07;6.80;;;1.77;;
61709;SDS011;47633;51.494;5.386;2023-05-29T08:27:33;5.43;;;1.98;;
61709;SDS011;47633;51.494;5.386;2023-05-29T08:29:58;8.88;;;2.10;;
61709;SDS011;47633;51.494;5.386;2023-05-29T08:32:24;6.63;;;1.80;;
61709;SDS011;47633;51.494;5.386;2023-05-29T08:34:49;9.50;;;2.08;;
61709;SDS011;47633;51.494;5.386;2023-05-29T08:37:15;8.43;;;2.22;;
61709;SDS011;47633;51.494;5.386;2023-05-29T08:39:41;6.35;;;1.83;;
61709;SDS011;47633;51.494;5.386;2023-05-29T08:42:13;7.85;;;2.00;;
61709;SDS011;47633;51.494;5.386;2023-05-29T08:44:43;8.20;;;1.88;;
61709;SDS011;47633;51.494;5.386;2023-05-29T08:47:12;6.95;;;1.80;;
61709;SDS011;47633;51.494;5.386;2023-05-29T08:49:45;7.97;;;1.98;;
61709;SDS011;47633;51.494;5.386;2023-05-29T08:52:16;7.00;;;2.20;;
61709;SDS011;47633;51.494;5.386;2023-05-29T08:54:43;7.15;;;1.80;;
61709;SDS011;47633;51.494;5.386;2023-05-29T08:57:12;5.47;;;1.60;;
61709;SDS011;47633;51.494;5.386;2023-05-29T08:59:39;5.82;;;1.92;;
61709;SDS011;47633;51.494;5.386;2023-05-29T09:02:08;8.65;;;2.05;;
61709;SDS011;47633;51.494;5.386;2023-05-29T09:04:34;6.03;;;1.65;;
61709;SDS011;47633;51.494;5.386;2023-05-29T09:06:59;6.40;;;1.80;;
61709;SDS011;47633;51.494;5.386;2023-05-29T09:09:25;8.05;;;2.10;;
61709;SDS011;47633;51.494;5.386;2023-05-29T09:11:54;6.82;;;1.73;;
61709;SDS011;47633;51.494;5.386;2023-05-29T09:17:06;7.20;;;1.85;;
61709;SDS011;47633;51.494;5.386;2023-05-29T09:19:33;6.78;;;1.75;;
61709;SDS011;47633;51.494;5.386;2023-05-29T09:22:00;7.18;;;1.95;;
61709;SDS011;47633;51.494;5.386;2023-05-29T09:24:30;6.22;;;1.92;;
61709;SDS011;47633;51.494;5.386;2023-05-29T09:26:58;5.97;;;1.73;;
61709;SDS011;47633;51.494;5.386;2023-05-29T09:29:25;6.68;;;1.77;;
61709;SDS011;47633;51.494;5.386;2023-05-29T09:31:50;7.00;;;2.00;;
61709;SDS011;47633;51.494;5.386;2023-05-29T09:34:16;6.95;;;1.77;;
61709;SDS011;47633;51.494;5.386;2023-05-29T09:36:41;6.95;;;1.73;;
61709;SDS011;47633;51.494;5.386;2023-05-29T09:39:06;5.00;;;1.57;;
61709;SDS011;47633;51.494;5.386;2023-05-29T09:41:41;6.10;;;1.58;;
61709;SDS011;47633;51.494;5.386;2023-05-29T09:44:07;5.82;;;1.50;;
61709;SDS011;47633;51.494;5.386;2023-05-29T09:46:35;7.18;;;1.63;;
61709;SDS011;47633;51.494;5.386;2023-05-29T09:49:01;5.93;;;1.67;;
61709;SDS011;47633;51.494;5.386;2023-05-29T09:51:28;8.30;;;1.88;;
61709;SDS011;47633;51.494;5.386;2023-05-29T09:53:54;6.70;;;2.00;;
61709;SDS011;47633;51.494;5.386;2023-05-29T09:56:23;6.30;;;1.73;;
61709;SDS011;47633;51.494;5.386;2023-05-29T09:58:51;4.72;;;1.73;;
61709;SDS011;47633;51.494;5.386;2023-05-29T10:01:18;6.85;;;1.80;;
61709;SDS011;47633;51.494;5.386;2023-05-29T10:03:44;9.88;;;2.22;;
61709;SDS011;47633;51.494;5.386;2023-05-29T10:06:12;6.93;;;1.40;;
61709;SDS011;47633;51.494;5.386;2023-05-29T10:08:45;5.95;;;1.73;;
61709;SDS011;47633;51.494;5.386;2023-05-29T10:11:14;5.55;;;1.45;;
61709;SDS011;47633;51.494;5.386;2023-05-29T10:16:15;6.22;;;1.77;;
61709;SDS011;47633;51.494;5.386;2023-05-29T10:18:44;8.05;;;1.73;;
61709;SDS011;47633;51.494;5.386;2023-05-29T10:21:14;8.85;;;1.75;;
61709;SDS011;47633;51.494;5.386;2023-05-29T10:23:40;6.25;;;1.70;;
61709;SDS011;47633;51.494;5.386;2023-05-29T10:26:23;6.60;;;1.80;;
61709;SDS011;47633;51.494;5.386;2023-05-29T10:32:04;5.57;;;1.50;;
61709;SDS011;47633;51.494;5.386;2023-05-29T10:34:54;6.20;;;1.52;;
61709;SDS011;47633;51.494;5.386;2023-05-29T10:40:10;8.43;;;1.50;;
61709;SDS011;47633;51.494;5.386;2023-05-29T10:42:40;9.55;;;1.50;;
61709;SDS011;47633;51.494;5.386;2023-05-29T10:47:54;5.30;;;1.70;;
61709;SDS011;47633;51.494;5.386;2023-05-29T10:50:38;5.82;;;1.75;;
61709;SDS011;47633;51.494;5.386;2023-05-29T10:53:06;7.82;;;1.88;;
61709;SDS011;47633;51.494;5.386;2023-05-29T10:55:36;7.50;;;1.80;;
61709;SDS011;47633;51.494;5.386;2023-05-29T11:01:00;5.97;;;1.73;;
61709;SDS011;47633;51.494;5.386;2023-05-29T11:03:29;8.98;;;1.88;;
61709;SDS011;47633;51.494;5.386;2023-05-29T11:09:03;10.87;;;1.70;;
61709;SDS011;47633;51.494;5.386;2023-05-29T11:13:53;6.07;;;1.70;;
61709;SDS011;47633;51.494;5.386;2023-05-29T11:18:54;4.93;;;1.73;;
61709;SDS011;47633;51.494;5.386;2023-05-29T11:21:30;7.60;;;2.05;;
61709;SDS011;47633;51.494;5.386;2023-05-29T11:23:57;5.22;;;1.60;;
61709;SDS011;47633;51.494;5.386;2023-05-29T11:26:26;7.22;;;1.80;;
61709;SDS011;47633;51.494;5.386;2023-05-29T11:28:52;6.13;;;1.67;;
61709;SDS011;47633;51.494;5.386;2023-05-29T11:31:17;6.60;;;1.52;;
61709;SDS011;47633;51.494;5.386;2023-05-29T11:33:48;6.47;;;1.80;;
61709;SDS011;47633;51.494;5.386;2023-05-29T11:36:16;6.90;;;2.10;;
61709;SDS011;47633;51.494;5.386;2023-05-29T11:38:43;7.40;;;1.80;;
61709;SDS011;47633;51.494;5.386;2023-05-29T11:41:08;5.57;;;1.75;;
61709;SDS011;47633;51.494;5.386;2023-05-29T11:43:34;6.43;;;1.73;;
61709;SDS011;47633;51.494;5.386;2023-05-29T11:46:00;6.13;;;1.73;;
61709;SDS011;47633;51.494;5.386;2023-05-29T11:48:25;6.70;;;2.13;;
61709;SDS011;47633;51.494;5.386;2023-05-29T11:50:50;8.10;;;1.70;;
61709;SDS011;47633;51.494;5.386;2023-05-29T11:53:16;10.18;;;2.13;;
61709;SDS011;47633;51.494;5.386;2023-05-29T11:55:41;9.43;;;1.75;;
61709;SDS011;47633;51.494;5.386;2023-05-29T11:58:08;8.02;;;1.80;;
61709;SDS011;47633;51.494;5.386;2023-05-29T12:00:37;5.68;;;1.80;;
61709;SDS011;47633;51.494;5.386;2023-05-29T12:03:04;5.72;;;1.70;;
61709;SDS011;47633;51.494;5.386;2023-05-29T12:05:46;6.97;;;1.73;;
61709;SDS011;47633;51.494;5.386;2023-05-29T12:08:20;6.95;;;1.73;;
61709;SDS011;47633;51.494;5.386;2023-05-29T12:10:47;8.07;;;2.58;;
61709;SDS011;47633;51.494;5.386;2023-05-29T12:13:13;8.77;;;1.95;;
61709;SDS011;47633;51.494;5.386;2023-05-29T12:15:41;8.20;;;2.10;;
61709;SDS011;47633;51.494;5.386;2023-05-29T12:18:07;6.88;;;1.70;;
61709;SDS011;47633;51.494;5.386;2023-05-29T12:20:32;7.82;;;2.00;;
61709;SDS011;47633;51.494;5.386;2023-05-29T12:22:59;7.63;;;1.90;;
61709;SDS011;47633;51.494;5.386;2023-05-29T12:25:26;9.82;;;1.80;;
61709;SDS011;47633;51.494;5.386;2023-05-29T12:27:52;6.93;;;1.77;;
61709;SDS011;47633;51.494;5.386;2023-05-29T12:30:22;8.75;;;1.80;;
61709;SDS011;47633;51.494;5.386;2023-05-29T12:32:48;5.10;;;1.80;;
61709;SDS011;47633;51.494;5.386;2023-05-29T12:35:23;7.00;;;1.77;;
61709;SDS011;47633;51.494;5.386;2023-05-29T12:40:24;5.43;;;1.98;;
61709;SDS011;47633;51.494;5.386;2023-05-29T12:42:57;6.88;;;1.83;;
61709;SDS011;47633;51.494;5.386;2023-05-29T12:45:27;5.65;;;1.70;;
61709;SDS011;47633;51.494;5.386;2023-05-29T12:47:55;5.72;;;1.70;;
61709;SDS011;47633;51.494;5.386;2023-05-29T12:50:26;4.97;;;1.85;;
61709;SDS011;47633;51.494;5.386;2023-05-29T12:52:59;6.47;;;2.03;;
61709;SDS011;47633;51.494;5.386;2023-05-29T12:55:34;5.13;;;1.77;;
61709;SDS011;47633;51.494;5.386;2023-05-29T12:58:11;10.88;;;2.47;;
61709;SDS011;47633;51.494;5.386;2023-05-29T13:00:38;7.72;;;2.22;;
61709;SDS011;47633;51.494;5.386;2023-05-29T13:03:08;7.35;;;2.03;;
61709;SDS011;47633;51.494;5.386;2023-05-29T13:05:36;8.07;;;2.00;;
61709;SDS011;47633;51.494;5.386;2023-05-29T13:08:01;7.63;;;1.83;;
61709;SDS011;47633;51.494;5.386;2023-05-29T13:10:27;8.52;;;1.83;;
61709;SDS011;47633;51.494;5.386;2023-05-29T13:12:53;7.28;;;1.83;;
61709;SDS011;47633;51.494;5.386;2023-05-29T13:15:23;9.10;;;2.17;;
61709;SDS011;47633;51.494;5.386;2023-05-29T13:17:49;7.05;;;1.90;;
61709;SDS011;47633;51.494;5.386;2023-05-29T13:20:19;6.10;;;1.60;;
61709;SDS011;47633;51.494;5.386;2023-05-29T13:22:46;6.70;;;2.30;;
61709;SDS011;47633;51.494;5.386;2023-05-29T13:25:13;7.40;;;1.90;;
61709;SDS011;47633;51.494;5.386;2023-05-29T13:27:40;7.47;;;1.77;;
61709;SDS011;47633;51.494;5.386;2023-05-29T13:30:07;8.27;;;1.83;;
61709;SDS011;47633;51.494;5.386;2023-05-29T13:32:34;5.35;;;1.58;;
61709;SDS011;47633;51.494;5.386;2023-05-29T13:35:00;5.70;;;1.70;;
61709;SDS011;47633;51.494;5.386;2023-05-29T13:37:26;5.60;;;1.83;;
61709;SDS011;47633;51.494;5.386;2023-05-29T13:39:52;9.27;;;2.20;;
61709;SDS011;47633;51.494;5.386;2023-05-29T13:42:18;7.25;;;2.10;;
61709;SDS011;47633;51.494;5.386;2023-05-29T13:44:44;6.28;;;1.90;;
61709;SDS011;47633;51.494;5.386;2023-05-29T13:47:10;5.85;;;1.75;;
61709;SDS011;47633;51.494;5.386;2023-05-29T13:49:35;6.10;;;2.10;;
61709;SDS011;47633;51.494;5.386;2023-05-29T13:52:01;7.93;;;2.28;;
61709;SDS011;47633;51.494;5.386;2023-05-29T13:54:30;7.50;;;1.75;;
61709;SDS011;47633;51.494;5.386;2023-05-29T13:57:00;5.43;;;1.75;;
61709;SDS011;47633;51.494;5.386;2023-05-29T13:59:26;6.38;;;1.70;;
61709;SDS011;47633;51.494;5.386;2023-05-29T14:01:52;4.80;;;1.70;;
61709;SDS011;47633;51.494;5.386;2023-05-29T14:04:17;9.45;;;2.88;;
61709;SDS011;47633;51.494;5.386;2023-05-29T14:06:42;4.90;;;1.80;;
61709;SDS011;47633;51.494;5.386;2023-05-29T14:09:07;6.85;;;1.98;;
61709;SDS011;47633;51.494;5.386;2023-05-29T14:11:36;5.70;;;1.70;;
61709;SDS011;47633;51.494;5.386;2023-05-29T14:14:02;8.43;;;2.10;;
61709;SDS011;47633;51.494;5.386;2023-05-29T14:16:28;9.50;;;1.90;;
61709;SDS011;47633;51.494;5.386;2023-05-29T14:18:54;7.55;;;2.13;;
61709;SDS011;47633;51.494;5.386;2023-05-29T14:21:19;6.45;;;1.77;;
61709;SDS011;47633;51.494;5.386;2023-05-29T14:23:45;11.52;;;1.90;;
61709;SDS011;47633;51.494;5.386;2023-05-29T14:26:11;10.45;;;2.05;;
61709;SDS011;47633;51.494;5.386;2023-05-29T14:28:36;5.80;;;1.93;;
61709;SDS011;47633;51.494;5.386;2023-05-29T14:31:02;7.20;;;1.80;;
61709;SDS011;47633;51.494;5.386;2023-05-29T14:33:27;6.65;;;2.03;;
61709;SDS011;47633;51.494;5.386;2023-05-29T14:35:52;6.00;;;2.03;;
61709;SDS011;47633;51.494;5.386;2023-05-29T14:38:17;6.70;;;1.70;;
61709;SDS011;47633;51.494;5.386;2023-05-29T14:40:43;6.60;;;2.00;;
61709;SDS011;47633;51.494;5.386;2023-05-29T14:43:08;7.43;;;1.90;;
61709;SDS011;47633;51.494;5.386;2023-05-29T14:45:34;4.55;;;1.60;;
61709;SDS011;47633;51.494;5.386;2023-05-29T14:47:59;6.35;;;2.13;;
61709;SDS011;47633;51.494;5.386;2023-05-29T14:50:26;7.38;;;2.08;;
61709;SDS011;47633;51.494;5.386;2023-05-29T14:52:51;10.43;;;1.92;;
61709;SDS011;47633;51.494;5.386;2023-05-29T14:55:16;11.02;;;1.85;;
61709;SDS011;47633;51.494;5.386;2023-05-29T14:57:42;8.55;;;2.25;;
61709;SDS011;47633;51.494;5.386;2023-05-29T15:00:07;4.73;;;1.70;;
61709;SDS011;47633;51.494;5.386;2023-05-29T15:02:33;4.35;;;1.55;;
61709;SDS011;47633;51.494;5.386;2023-05-29T15:04:58;8.93;;;2.15;;
61709;SDS011;47633;51.494;5.386;2023-05-29T15:07:24;6.35;;;1.92;;
61709;SDS011;47633;51.494;5.386;2023-05-29T15:09:50;9.25;;;1.85;;
61709;SDS011;47633;51.494;5.386;2023-05-29T15:12:15;5.65;;;1.70;;
61709;SDS011;47633;51.494;5.386;2023-05-29T15:14:40;8.40;;;2.40;;
61709;SDS011;47633;51.494;5.386;2023-05-29T15:17:06;9.45;;;1.90;;
61709;SDS011;47633;51.494;5.386;2023-05-29T15:19:31;8.20;;;2.05;;
61709;SDS011;47633;51.494;5.386;2023-05-29T15:21:57;8.20;;;2.00;;
61709;SDS011;47633;51.494;5.386;2023-05-29T15:24:22;8.35;;;2.20;;
61709;SDS011;47633;51.494;5.386;2023-05-29T15:26:48;8.43;;;2.20;;